sensor_id;sensor_type;location;lat;lon;timestamp;P1;durP1;ratioP1;P2;durP2;ratioP2
1346;SDS011;667;48.796;9.480;2022-09-09T00:04:33;2.43;;;1.90;;
1346;SDS011;667;48.796;9.480;2022-09-09T00:09:34;4.00;;;1.87;;
1346;SDS011;667;48.796;9.480;2022-09-09T00:12:12;2.10;;;1.70;;
1346;SDS011;667;48.796;9.480;2022-09-09T00:15:13;4.23;;;1.53;;
1346;SDS011;667;48.796;9.480;2022-09-09T00:23:32;1.70;;;1.60;;
1346;SDS011;667;48.796;9.480;2022-09-09T00:26:14;5.83;;;2.03;;
1346;SDS011;667;48.796;9.480;2022-09-09T00:29:21;3.77;;;1.80;;
1346;SDS011;667;48.796;9.480;2022-09-09T00:31:54;4.03;;;1.93;;
1346;SDS011;667;48.796;9.480;2022-09-09T00:34:25;2.97;;;1.73;;
1346;SDS011;667;48.796;9.480;2022-09-09T00:36:53;2.27;;;2.00;;
1346;SDS011;667;48.796;9.480;2022-09-09T00:39:27;3.83;;;1.50;;
1346;SDS011;667;48.796;9.480;2022-09-09T00:42:12;2.90;;;1.60;;
1346;SDS011;667;48.796;9.480;2022-09-09T00:47:54;2.10;;;1.40;;
1346;SDS011;667;48.796;9.480;2022-09-09T00:55:54;1.83;;;1.40;;
1346;SDS011;667;48.796;9.480;2022-09-09T00:58:47;2.30;;;1.63;;
1346;SDS011;667;48.796;9.480;2022-09-09T01:01:24;2.53;;;1.70;;
1346;SDS011;667;48.796;9.480;2022-09-09T01:03:53;2.50;;;1.60;;
1346;SDS011;667;48.796;9.480;2022-09-09T01:06:22;2.80;;;2.10;;
1346;SDS011;667;48.796;9.480;2022-09-09T01:12:01;1.80;;;1.40;;
1346;SDS011;667;48.796;9.480;2022-09-09T01:14:48;1.40;;;1.30;;
1346;SDS011;667;48.796;9.480;2022-09-09T01:28:10;2.20;;;1.57;;
1346;SDS011;667;48.796;9.480;2022-09-09T01:30:42;2.23;;;1.47;;
1346;SDS011;667;48.796;9.480;2022-09-09T01:33:10;5.83;;;2.10;;
1346;SDS011;667;48.796;9.480;2022-09-09T01:38:11;3.37;;;1.90;;
1346;SDS011;667;48.796;9.480;2022-09-09T01:40:37;1.60;;;1.50;;
1346;SDS011;667;48.796;9.480;2022-09-09T01:43:03;1.90;;;1.50;;
1346;SDS011;667;48.796;9.480;2022-09-09T01:45:29;2.70;;;1.77;;
1346;SDS011;667;48.796;9.480;2022-09-09T01:47:56;1.67;;;1.57;;
1346;SDS011;667;48.796;9.480;2022-09-09T01:50:22;2.70;;;1.40;;
1346;SDS011;667;48.796;9.480;2022-09-09T01:52:49;4.47;;;1.80;;
1346;SDS011;667;48.796;9.480;2022-09-09T01:55:18;7.03;;;1.80;;
1346;SDS011;667;48.796;9.480;2022-09-09T01:57:58;3.60;;;1.60;;
1346;SDS011;667;48.796;9.480;2022-09-09T02:00:49;2.33;;;1.70;;
1346;SDS011;667;48.796;9.480;2022-09-09T02:08:26;1.87;;;1.40;;
1346;SDS011;667;48.796;9.480;2022-09-09T02:11:13;2.23;;;1.83;;
1346;SDS011;667;48.796;9.480;2022-09-09T02:13:40;3.27;;;2.07;;
1346;SDS011;667;48.796;9.480;2022-09-09T02:19:02;2.87;;;1.70;;
1346;SDS011;667;48.796;9.480;2022-09-09T02:21:44;3.47;;;1.60;;
1346;SDS011;667;48.796;9.480;2022-09-09T02:24:11;4.43;;;1.67;;
1346;SDS011;667;48.796;9.480;2022-09-09T02:26:40;2.57;;;1.60;;
1346;SDS011;667;48.796;9.480;2022-09-09T02:29:14;1.53;;;1.43;;
1346;SDS011;667;48.796;9.480;2022-09-09T02:31:43;2.83;;;1.70;;
1346;SDS011;667;48.796;9.480;2022-09-09T02:34:12;4.13;;;1.73;;
1346;SDS011;667;48.796;9.480;2022-09-09T02:36:38;2.73;;;1.93;;
1346;SDS011;667;48.796;9.480;2022-09-09T02:39:07;2.20;;;1.67;;
1346;SDS011;667;48.796;9.480;2022-09-09T02:41:36;1.80;;;1.70;;
1346;SDS011;667;48.796;9.480;2022-09-09T02:44:14;2.13;;;1.70;;
1346;SDS011;667;48.796;9.480;2022-09-09T02:49:31;3.03;;;2.10;;
1346;SDS011;667;48.796;9.480;2022-09-09T02:52:20;1.90;;;1.60;;
1346;SDS011;667;48.796;9.480;2022-09-09T02:54:51;1.87;;;1.77;;
1346;SDS011;667;48.796;9.480;2022-09-09T02:57:25;3.00;;;1.73;;
1346;SDS011;667;48.796;9.480;2022-09-09T02:59:53;2.10;;;1.90;;
1346;SDS011;667;48.796;9.480;2022-09-09T03:02:21;1.40;;;1.30;;
1346;SDS011;667;48.796;9.480;2022-09-09T03:04:47;2.50;;;1.53;;
1346;SDS011;667;48.796;9.480;2022-09-09T03:07:16;2.37;;;1.80;;
1346;SDS011;667;48.796;9.480;2022-09-09T03:09:43;3.60;;;1.67;;
1346;SDS011;667;48.796;9.480;2022-09-09T03:12:09;2.40;;;2.00;;
1346;SDS011;667;48.796;9.480;2022-09-09T03:14:36;1.80;;;1.70;;
1346;SDS011;667;48.796;9.480;2022-09-09T03:17:03;3.00;;;1.70;;
1346;SDS011;667;48.796;9.480;2022-09-09T03:19:29;2.37;;;1.47;;
1346;SDS011;667;48.796;9.480;2022-09-09T03:21:55;3.73;;;1.60;;
1346;SDS011;667;48.796;9.480;2022-09-09T03:24:20;3.07;;;1.67;;
1346;SDS011;667;48.796;9.480;2022-09-09T03:26:47;1.83;;;1.50;;
1346;SDS011;667;48.796;9.480;2022-09-09T03:29:13;2.60;;;1.60;;
1346;SDS011;667;48.796;9.480;2022-09-09T03:31:39;2.27;;;1.80;;
1346;SDS011;667;48.796;9.480;2022-09-09T03:34:05;2.70;;;1.60;;
1346;SDS011;667;48.796;9.480;2022-09-09T03:36:31;2.10;;;1.47;;
1346;SDS011;667;48.796;9.480;2022-09-09T03:38:57;3.20;;;2.77;;
1346;SDS011;667;48.796;9.480;2022-09-09T03:41:24;3.80;;;1.70;;
1346;SDS011;667;48.796;9.480;2022-09-09T03:43:51;5.43;;;2.10;;
1346;SDS011;667;48.796;9.480;2022-09-09T03:46:18;3.23;;;1.87;;
1346;SDS011;667;48.796;9.480;2022-09-09T03:48:44;2.93;;;2.17;;
1346;SDS011;667;48.796;9.480;2022-09-09T03:51:10;2.10;;;1.70;;
1346;SDS011;667;48.796;9.480;2022-09-09T03:53:36;2.13;;;1.67;;
1346;SDS011;667;48.796;9.480;2022-09-09T03:56:03;2.27;;;2.07;;
1346;SDS011;667;48.796;9.480;2022-09-09T03:58:31;2.58;;;2.03;;
1346;SDS011;667;48.796;9.480;2022-09-09T04:01:03;2.13;;;1.80;;
1346;SDS011;667;48.796;9.480;2022-09-09T04:03:29;3.03;;;1.90;;
1346;SDS011;667;48.796;9.480;2022-09-09T04:05:56;4.47;;;2.30;;
1346;SDS011;667;48.796;9.480;2022-09-09T04:08:23;1.87;;;1.77;;
1346;SDS011;667;48.796;9.480;2022-09-09T04:10:50;5.20;;;1.97;;
1346;SDS011;667;48.796;9.480;2022-09-09T04:13:16;1.63;;;1.53;;
1346;SDS011;667;48.796;9.480;2022-09-09T04:15:43;3.47;;;2.10;;
1346;SDS011;667;48.796;9.480;2022-09-09T04:18:14;1.57;;;1.47;;
1346;SDS011;667;48.796;9.480;2022-09-09T04:20:40;2.33;;;1.80;;
1346;SDS011;667;48.796;9.480;2022-09-09T04:23:08;3.57;;;2.13;;
1346;SDS011;667;48.796;9.480;2022-09-09T04:25:33;4.37;;;2.23;;
1346;SDS011;667;48.796;9.480;2022-09-09T04:27:59;3.07;;;2.40;;
1346;SDS011;667;48.796;9.480;2022-09-09T04:30:25;3.60;;;2.80;;
1346;SDS011;667;48.796;9.480;2022-09-09T04:32:52;4.10;;;2.70;;
1346;SDS011;667;48.796;9.480;2022-09-09T04:35:17;2.70;;;2.33;;
1346;SDS011;667;48.796;9.480;2022-09-09T04:37:45;3.03;;;2.80;;
1346;SDS011;667;48.796;9.480;2022-09-09T04:40:10;3.10;;;2.80;;
1346;SDS011;667;48.796;9.480;2022-09-09T04:42:36;6.47;;;3.13;;
1346;SDS011;667;48.796;9.480;2022-09-09T04:45:02;2.83;;;2.30;;
1346;SDS011;667;48.796;9.480;2022-09-09T04:47:28;2.50;;;2.30;;
1346;SDS011;667;48.796;9.480;2022-09-09T04:49:53;2.40;;;2.20;;
1346;SDS011;667;48.796;9.480;2022-09-09T04:52:20;2.47;;;2.27;;
1346;SDS011;667;48.796;9.480;2022-09-09T04:54:46;3.27;;;2.70;;
1346;SDS011;667;48.796;9.480;2022-09-09T04:57:11;3.17;;;2.13;;
1346;SDS011;667;48.796;9.480;2022-09-09T04:59:37;4.00;;;2.20;;
1346;SDS011;667;48.796;9.480;2022-09-09T05:02:04;4.97;;;2.97;;
1346;SDS011;667;48.796;9.480;2022-09-09T05:04:30;3.03;;;2.23;;
1346;SDS011;667;48.796;9.480;2022-09-09T05:06:55;4.33;;;2.20;;
1346;SDS011;667;48.796;9.480;2022-09-09T05:09:21;3.30;;;2.37;;
1346;SDS011;667;48.796;9.480;2022-09-09T05:11:47;2.37;;;2.17;;
1346;SDS011;667;48.796;9.480;2022-09-09T05:14:12;6.50;;;2.20;;
1346;SDS011;667;48.796;9.480;2022-09-09T05:16:39;2.70;;;2.50;;
1346;SDS011;667;48.796;9.480;2022-09-09T05:19:05;4.57;;;2.27;;
1346;SDS011;667;48.796;9.480;2022-09-09T05:21:32;2.93;;;2.60;;
1346;SDS011;667;48.796;9.480;2022-09-09T05:23:58;3.03;;;2.13;;
1346;SDS011;667;48.796;9.480;2022-09-09T05:26:25;4.07;;;2.20;;
1346;SDS011;667;48.796;9.480;2022-09-09T05:28:51;2.10;;;1.90;;
1346;SDS011;667;48.796;9.480;2022-09-09T05:31:17;2.20;;;2.00;;
1346;SDS011;667;48.796;9.480;2022-09-09T05:33:44;4.50;;;2.10;;
1346;SDS011;667;48.796;9.480;2022-09-09T05:36:11;3.33;;;2.20;;
1346;SDS011;667;48.796;9.480;2022-09-09T05:38:39;5.13;;;2.27;;
1346;SDS011;667;48.796;9.480;2022-09-09T05:41:06;3.10;;;2.70;;
1346;SDS011;667;48.796;9.480;2022-09-09T05:43:32;2.67;;;2.17;;
1346;SDS011;667;48.796;9.480;2022-09-09T05:48:29;2.90;;;2.30;;
1346;SDS011;667;48.796;9.480;2022-09-09T05:50:56;8.00;;;3.03;;
1346;SDS011;667;48.796;9.480;2022-09-09T05:53:21;5.83;;;2.63;;
1346;SDS011;667;48.796;9.480;2022-09-09T05:55:47;3.20;;;2.67;;
1346;SDS011;667;48.796;9.480;2022-09-09T05:58:13;3.23;;;2.80;;
1346;SDS011;667;48.796;9.480;2022-09-09T06:00:40;6.03;;;2.63;;
1346;SDS011;667;48.796;9.480;2022-09-09T06:03:05;4.23;;;3.43;;
1346;SDS011;667;48.796;9.480;2022-09-09T06:05:31;5.10;;;2.70;;
1346;SDS011;667;48.796;9.480;2022-09-09T06:07:58;6.27;;;2.63;;
1346;SDS011;667;48.796;9.480;2022-09-09T06:10:24;3.20;;;2.90;;
1346;SDS011;667;48.796;9.480;2022-09-09T06:12:51;4.20;;;2.30;;
1346;SDS011;667;48.796;9.480;2022-09-09T06:15:17;4.10;;;2.80;;
1346;SDS011;667;48.796;9.480;2022-09-09T06:17:43;4.90;;;2.83;;
1346;SDS011;667;48.796;9.480;2022-09-09T06:20:10;4.17;;;2.13;;
1346;SDS011;667;48.796;9.480;2022-09-09T06:22:36;4.00;;;2.70;;
1346;SDS011;667;48.796;9.480;2022-09-09T06:25:04;2.50;;;2.20;;
1346;SDS011;667;48.796;9.480;2022-09-09T06:27:29;3.00;;;2.60;;
1346;SDS011;667;48.796;9.480;2022-09-09T06:29:55;3.53;;;2.67;;
1346;SDS011;667;48.796;9.480;2022-09-09T06:32:21;2.63;;;2.27;;
1346;SDS011;667;48.796;9.480;2022-09-09T06:34:46;3.23;;;2.50;;
1346;SDS011;667;48.796;9.480;2022-09-09T06:37:14;4.00;;;2.50;;
1346;SDS011;667;48.796;9.480;2022-09-09T06:39:40;2.80;;;2.27;;
1346;SDS011;667;48.796;9.480;2022-09-09T06:42:05;3.60;;;2.33;;
1346;SDS011;667;48.796;9.480;2022-09-09T06:44:33;4.67;;;2.67;;
1346;SDS011;667;48.796;9.480;2022-09-09T06:46:59;3.33;;;2.67;;
1346;SDS011;667;48.796;9.480;2022-09-09T06:49:24;3.80;;;2.33;;
1346;SDS011;667;48.796;9.480;2022-09-09T06:51:50;3.47;;;3.17;;
1346;SDS011;667;48.796;9.480;2022-09-09T06:54:17;3.57;;;2.57;;
1346;SDS011;667;48.796;9.480;2022-09-09T06:56:43;2.77;;;2.23;;
1346;SDS011;667;48.796;9.480;2022-09-09T06:59:10;4.30;;;2.60;;
1346;SDS011;667;48.796;9.480;2022-09-09T07:01:40;5.47;;;2.60;;
1346;SDS011;667;48.796;9.480;2022-09-09T07:04:08;4.53;;;2.90;;
1346;SDS011;667;48.796;9.480;2022-09-09T07:06:39;3.63;;;2.80;;
1346;SDS011;667;48.796;9.480;2022-09-09T07:09:10;4.50;;;2.23;;
1346;SDS011;667;48.796;9.480;2022-09-09T07:11:47;3.77;;;2.50;;
1346;SDS011;667;48.796;9.480;2022-09-09T07:14:15;4.50;;;2.10;;
1346;SDS011;667;48.796;9.480;2022-09-09T07:16:41;3.17;;;2.73;;
1346;SDS011;667;48.796;9.480;2022-09-09T07:19:08;5.60;;;2.87;;
1346;SDS011;667;48.796;9.480;2022-09-09T07:21:34;2.50;;;2.30;;
1346;SDS011;667;48.796;9.480;2022-09-09T07:24:00;8.33;;;3.10;;
1346;SDS011;667;48.796;9.480;2022-09-09T07:26:27;2.80;;;2.60;;
1346;SDS011;667;48.796;9.480;2022-09-09T07:28:55;2.83;;;2.50;;
1346;SDS011;667;48.796;9.480;2022-09-09T07:33:58;3.83;;;2.10;;
1346;SDS011;667;48.796;9.480;2022-09-09T07:36:27;2.63;;;2.20;;
1346;SDS011;667;48.796;9.480;2022-09-09T07:39:04;3.00;;;1.77;;
1346;SDS011;667;48.796;9.480;2022-09-09T07:41:38;1.87;;;1.67;;
1346;SDS011;667;48.796;9.480;2022-09-09T07:44:09;2.90;;;1.90;;
1346;SDS011;667;48.796;9.480;2022-09-09T07:46:43;3.47;;;1.97;;
1346;SDS011;667;48.796;9.480;2022-09-09T07:49:10;4.83;;;2.60;;
1346;SDS011;667;48.796;9.480;2022-09-09T07:51:37;2.93;;;1.90;;
1346;SDS011;667;48.796;9.480;2022-09-09T07:54:07;2.20;;;1.70;;
1346;SDS011;667;48.796;9.480;2022-09-09T07:56:34;2.00;;;1.70;;
1346;SDS011;667;48.796;9.480;2022-09-09T07:59:01;2.93;;;1.83;;
1346;SDS011;667;48.796;9.480;2022-09-09T08:01:31;3.47;;;1.93;;
1346;SDS011;667;48.796;9.480;2022-09-09T08:04:04;3.63;;;2.23;;
1346;SDS011;667;48.796;9.480;2022-09-09T08:06:34;5.30;;;2.13;;
1346;SDS011;667;48.796;9.480;2022-09-09T08:09:04;3.07;;;1.77;;
1346;SDS011;667;48.796;9.480;2022-09-09T08:11:30;5.17;;;1.90;;
1346;SDS011;667;48.796;9.480;2022-09-09T08:13:57;2.70;;;1.87;;
1346;SDS011;667;48.796;9.480;2022-09-09T08:16:25;3.93;;;1.43;;
1346;SDS011;667;48.796;9.480;2022-09-09T08:18:52;3.03;;;1.13;;
1346;SDS011;667;48.796;9.480;2022-09-09T08:21:28;2.60;;;1.57;;
1346;SDS011;667;48.796;9.480;2022-09-09T08:23:55;2.13;;;1.80;;
1346;SDS011;667;48.796;9.480;2022-09-09T08:26:23;1.60;;;1.50;;
1346;SDS011;667;48.796;9.480;2022-09-09T08:28:51;2.20;;;1.23;;
1346;SDS011;667;48.796;9.480;2022-09-09T08:31:19;2.97;;;1.40;;
1346;SDS011;667;48.796;9.480;2022-09-09T08:33:47;2.87;;;1.83;;
1346;SDS011;667;48.796;9.480;2022-09-09T08:36:14;3.60;;;2.00;;
1346;SDS011;667;48.796;9.480;2022-09-09T08:38:49;7.47;;;1.53;;
1346;SDS011;667;48.796;9.480;2022-09-09T08:44:40;2.47;;;1.60;;
1346;SDS011;667;48.796;9.480;2022-09-09T08:49:39;2.87;;;1.70;;
1346;SDS011;667;48.796;9.480;2022-09-09T08:52:30;3.83;;;1.53;;
1346;SDS011;667;48.796;9.480;2022-09-09T08:57:57;3.50;;;1.63;;
1346;SDS011;667;48.796;9.480;2022-09-09T09:11:52;4.53;;;2.13;;
1346;SDS011;667;48.796;9.480;2022-09-09T09:14:26;2.00;;;1.80;;
1346;SDS011;667;48.796;9.480;2022-09-09T09:19:24;2.40;;;1.80;;
1346;SDS011;667;48.796;9.480;2022-09-09T09:25:15;3.07;;;1.70;;
1346;SDS011;667;48.796;9.480;2022-09-09T09:30:22;2.37;;;1.30;;
1346;SDS011;667;48.796;9.480;2022-09-09T09:35:22;5.03;;;1.40;;
1346;SDS011;667;48.796;9.480;2022-09-09T09:37:48;1.90;;;1.00;;
1346;SDS011;667;48.796;9.480;2022-09-09T09:40:15;3.70;;;1.40;;
1346;SDS011;667;48.796;9.480;2022-09-09T09:45:26;1.80;;;1.37;;
1346;SDS011;667;48.796;9.480;2022-09-09T09:48:00;1.20;;;1.10;;
1346;SDS011;667;48.796;9.480;2022-09-09T09:50:31;3.47;;;1.30;;
1346;SDS011;667;48.796;9.480;2022-09-09T09:53:02;2.77;;;1.43;;
1346;SDS011;667;48.796;9.480;2022-09-09T09:55:30;3.97;;;1.50;;
1346;SDS011;667;48.796;9.480;2022-09-09T09:58:02;2.43;;;1.33;;
1346;SDS011;667;48.796;9.480;2022-09-09T10:00:32;2.90;;;1.33;;
1346;SDS011;667;48.796;9.480;2022-09-09T10:02:59;1.70;;;0.70;;
1346;SDS011;667;48.796;9.480;2022-09-09T10:05:29;1.07;;;0.87;;
1346;SDS011;667;48.796;9.480;2022-09-09T10:08:08;2.40;;;0.90;;
1346;SDS011;667;48.796;9.480;2022-09-09T10:13:47;2.27;;;1.10;;
1346;SDS011;667;48.796;9.480;2022-09-09T10:16:40;2.20;;;1.00;;
1346;SDS011;667;48.796;9.480;2022-09-09T10:19:30;1.80;;;0.80;;
1346;SDS011;667;48.796;9.480;2022-09-09T10:30:09;1.73;;;1.03;;
1346;SDS011;667;48.796;9.480;2022-09-09T10:42:56;1.57;;;1.07;;
1346;SDS011;667;48.796;9.480;2022-09-09T10:53:06;3.23;;;1.30;;
1346;SDS011;667;48.796;9.480;2022-09-09T10:55:43;2.37;;;1.17;;
1346;SDS011;667;48.796;9.480;2022-09-09T10:58:23;2.43;;;1.30;;
1346;SDS011;667;48.796;9.480;2022-09-09T11:00:56;2.20;;;1.10;;
1346;SDS011;667;48.796;9.480;2022-09-09T11:03:34;4.83;;;1.53;;
1346;SDS011;667;48.796;9.480;2022-09-09T11:06:04;2.30;;;1.30;;
1346;SDS011;667;48.796;9.480;2022-09-09T11:08:36;5.47;;;1.30;;
1346;SDS011;667;48.796;9.480;2022-09-09T11:11:06;1.23;;;1.07;;
1346;SDS011;667;48.796;9.480;2022-09-09T11:19:04;3.00;;;1.10;;
1346;SDS011;667;48.796;9.480;2022-09-09T11:21:46;4.27;;;1.53;;
1346;SDS011;667;48.796;9.480;2022-09-09T11:24:20;4.37;;;1.30;;
1346;SDS011;667;48.796;9.480;2022-09-09T11:27:07;2.50;;;1.23;;
1346;SDS011;667;48.796;9.480;2022-09-09T11:40:14;2.80;;;1.30;;
1346;SDS011;667;48.796;9.480;2022-09-09T11:42:44;1.60;;;1.17;;
1346;SDS011;667;48.796;9.480;2022-09-09T11:45:31;1.47;;;1.30;;
1346;SDS011;667;48.796;9.480;2022-09-09T11:48:00;3.60;;;1.30;;
1346;SDS011;667;48.796;9.480;2022-09-09T11:50:34;2.60;;;1.33;;
1346;SDS011;667;48.796;9.480;2022-09-09T11:55:41;3.40;;;1.30;;
1346;SDS011;667;48.796;9.480;2022-09-09T12:08:42;2.50;;;0.97;;
1346;SDS011;667;48.796;9.480;2022-09-09T12:11:12;1.40;;;1.30;;
1346;SDS011;667;48.796;9.480;2022-09-09T12:13:57;3.00;;;1.30;;
1346;SDS011;667;48.796;9.480;2022-09-09T12:16:31;2.50;;;1.10;;
1346;SDS011;667;48.796;9.480;2022-09-09T12:19:06;4.70;;;1.17;;
1346;SDS011;667;48.796;9.480;2022-09-09T12:27:25;1.60;;;1.40;;
1346;SDS011;667;48.796;9.480;2022-09-09T12:30:07;2.20;;;1.17;;
1346;SDS011;667;48.796;9.480;2022-09-09T12:32:39;1.80;;;1.70;;
1346;SDS011;667;48.796;9.480;2022-09-09T12:37:42;1.97;;;1.10;;
1346;SDS011;667;48.796;9.480;2022-09-09T12:42:45;2.87;;;1.30;;
1346;SDS011;667;48.796;9.480;2022-09-09T12:45:15;3.50;;;1.70;;
1346;SDS011;667;48.796;9.480;2022-09-09T12:48:26;1.77;;;1.10;;
1346;SDS011;667;48.796;9.480;2022-09-09T12:50:37;2.70;;;1.07;;
1346;SDS011;667;48.796;9.480;2022-09-09T12:53:10;2.47;;;1.33;;
1346;SDS011;667;48.796;9.480;2022-09-09T12:56:01;2.43;;;1.20;;
1346;SDS011;667;48.796;9.480;2022-09-09T12:58:33;3.87;;;1.10;;
1346;SDS011;667;48.796;9.480;2022-09-09T13:01:01;2.43;;;1.40;;
1346;SDS011;667;48.796;9.480;2022-09-09T13:03:31;2.90;;;0.90;;
1346;SDS011;667;48.796;9.480;2022-09-09T13:05:58;2.40;;;1.37;;
1346;SDS011;667;48.796;9.480;2022-09-09T13:08:36;1.67;;;1.10;;
1346;SDS011;667;48.796;9.480;2022-09-09T13:11:03;3.10;;;1.23;;
1346;SDS011;667;48.796;9.480;2022-09-09T13:13:41;1.80;;;0.93;;
1346;SDS011;667;48.796;9.480;2022-09-09T13:16:27;2.13;;;1.10;;
1346;SDS011;667;48.796;9.480;2022-09-09T13:18:56;1.60;;;1.00;;
1346;SDS011;667;48.796;9.480;2022-09-09T13:21:36;2.63;;;1.20;;
1346;SDS011;667;48.796;9.480;2022-09-09T13:26:58;1.13;;;1.07;;
1346;SDS011;667;48.796;9.480;2022-09-09T13:29:30;1.37;;;1.07;;
1346;SDS011;667;48.796;9.480;2022-09-09T13:32:06;4.10;;;1.10;;
1346;SDS011;667;48.796;9.480;2022-09-09T13:34:50;0.80;;;0.80;;
1346;SDS011;667;48.796;9.480;2022-09-09T13:37:28;3.10;;;1.10;;
1346;SDS011;667;48.796;9.480;2022-09-09T13:40:01;2.80;;;0.87;;
1346;SDS011;667;48.796;9.480;2022-09-09T13:42:31;1.57;;;1.30;;
1346;SDS011;667;48.796;9.480;2022-09-09T13:45:00;1.47;;;0.70;;
1346;SDS011;667;48.796;9.480;2022-09-09T13:47:31;2.10;;;0.80;;
1346;SDS011;667;48.796;9.480;2022-09-09T13:50:09;1.47;;;0.70;;
1346;SDS011;667;48.796;9.480;2022-09-09T13:52:48;2.60;;;0.70;;
1346;SDS011;667;48.796;9.480;2022-09-09T13:55:16;0.77;;;0.67;;
1346;SDS011;667;48.796;9.480;2022-09-09T13:57:58;2.80;;;0.80;;
1346;SDS011;667;48.796;9.480;2022-09-09T14:00:26;5.03;;;1.30;;
1346;SDS011;667;48.796;9.480;2022-09-09T14:02:54;0.93;;;0.70;;
1346;SDS011;667;48.796;9.480;2022-09-09T14:05:22;2.27;;;0.90;;
1346;SDS011;667;48.796;9.480;2022-09-09T14:07:48;1.40;;;0.90;;
1346;SDS011;667;48.796;9.480;2022-09-09T14:10:15;1.33;;;0.60;;
1346;SDS011;667;48.796;9.480;2022-09-09T14:12:40;1.37;;;0.80;;
1346;SDS011;667;48.796;9.480;2022-09-09T14:15:07;2.80;;;0.67;;
1346;SDS011;667;48.796;9.480;2022-09-09T14:17:35;1.60;;;0.77;;
1346;SDS011;667;48.796;9.480;2022-09-09T14:20:01;1.63;;;0.83;;
1346;SDS011;667;48.796;9.480;2022-09-09T14:22:34;1.20;;;0.77;;
1346;SDS011;667;48.796;9.480;2022-09-09T14:25:00;1.67;;;0.80;;
1346;SDS011;667;48.796;9.480;2022-09-09T14:27:26;1.37;;;0.77;;
1346;SDS011;667;48.796;9.480;2022-09-09T14:29:52;2.90;;;0.83;;
1346;SDS011;667;48.796;9.480;2022-09-09T14:32:18;1.20;;;0.77;;
1346;SDS011;667;48.796;9.480;2022-09-09T14:34:44;1.87;;;0.80;;
1346;SDS011;667;48.796;9.480;2022-09-09T14:37:10;1.80;;;1.07;;
1346;SDS011;667;48.796;9.480;2022-09-09T14:39:36;1.63;;;0.70;;
1346;SDS011;667;48.796;9.480;2022-09-09T14:42:01;0.93;;;0.70;;
1346;SDS011;667;48.796;9.480;2022-09-09T14:44:27;1.50;;;1.00;;
1346;SDS011;667;48.796;9.480;2022-09-09T14:46:53;1.10;;;0.70;;
1346;SDS011;667;48.796;9.480;2022-09-09T14:49:19;1.23;;;1.00;;
1346;SDS011;667;48.796;9.480;2022-09-09T14:51:45;2.33;;;0.97;;
1346;SDS011;667;48.796;9.480;2022-09-09T14:54:10;2.57;;;0.97;;
1346;SDS011;667;48.796;9.480;2022-09-09T14:56:36;2.87;;;1.00;;
1346;SDS011;667;48.796;9.480;2022-09-09T14:59:03;0.80;;;0.60;;
1346;SDS011;667;48.796;9.480;2022-09-09T15:01:29;2.03;;;0.67;;
1346;SDS011;667;48.796;9.480;2022-09-09T15:06:24;1.13;;;0.67;;
1346;SDS011;667;48.796;9.480;2022-09-09T15:08:51;3.13;;;1.17;;
1346;SDS011;667;48.796;9.480;2022-09-09T15:11:18;1.27;;;0.93;;
1346;SDS011;667;48.796;9.480;2022-09-09T15:13:45;1.23;;;0.80;;
1346;SDS011;667;48.796;9.480;2022-09-09T15:16:16;4.00;;;1.43;;
1346;SDS011;667;48.796;9.480;2022-09-09T15:18:43;1.23;;;0.73;;
1346;SDS011;667;48.796;9.480;2022-09-09T15:21:14;2.07;;;0.80;;
1346;SDS011;667;48.796;9.480;2022-09-09T15:23:42;1.70;;;0.73;;
1346;SDS011;667;48.796;9.480;2022-09-09T15:26:08;1.90;;;0.90;;
1346;SDS011;667;48.796;9.480;2022-09-09T15:28:35;1.23;;;0.80;;
1346;SDS011;667;48.796;9.480;2022-09-09T15:31:09;0.70;;;0.70;;
1346;SDS011;667;48.796;9.480;2022-09-09T15:33:39;1.67;;;0.80;;
1346;SDS011;667;48.796;9.480;2022-09-09T15:38:47;1.17;;;0.80;;
1346;SDS011;667;48.796;9.480;2022-09-09T15:41:13;1.43;;;0.53;;
1346;SDS011;667;48.796;9.480;2022-09-09T15:43:43;0.53;;;0.50;;
1346;SDS011;667;48.796;9.480;2022-09-09T15:48:42;1.33;;;0.40;;
1346;SDS011;667;48.796;9.480;2022-09-09T15:51:09;1.90;;;0.70;;
1346;SDS011;667;48.796;9.480;2022-09-09T15:53:36;1.23;;;0.60;;
1346;SDS011;667;48.796;9.480;2022-09-09T15:56:04;1.57;;;0.70;;
1346;SDS011;667;48.796;9.480;2022-09-09T15:58:31;2.00;;;0.83;;
1346;SDS011;667;48.796;9.480;2022-09-09T16:01:04;1.53;;;0.60;;
1346;SDS011;667;48.796;9.480;2022-09-09T16:03:33;1.23;;;1.10;;
1346;SDS011;667;48.796;9.480;2022-09-09T16:06:03;1.90;;;0.70;;
1346;SDS011;667;48.796;9.480;2022-09-09T16:08:37;4.53;;;0.83;;
1346;SDS011;667;48.796;9.480;2022-09-09T16:11:05;2.47;;;1.00;;
1346;SDS011;667;48.796;9.480;2022-09-09T16:13:36;2.60;;;1.20;;
1346;SDS011;667;48.796;9.480;2022-09-09T16:16:02;2.67;;;0.90;;
1346;SDS011;667;48.796;9.480;2022-09-09T16:18:35;1.23;;;0.90;;
1346;SDS011;667;48.796;9.480;2022-09-09T16:21:02;2.60;;;0.70;;
1346;SDS011;667;48.796;9.480;2022-09-09T16:23:29;2.73;;;0.93;;
1346;SDS011;667;48.796;9.480;2022-09-09T16:25:56;1.13;;;0.80;;
1346;SDS011;667;48.796;9.480;2022-09-09T16:28:22;1.97;;;0.97;;
1346;SDS011;667;48.796;9.480;2022-09-09T16:30:48;1.40;;;0.93;;
1346;SDS011;667;48.796;9.480;2022-09-09T16:33:13;1.87;;;0.83;;
1346;SDS011;667;48.796;9.480;2022-09-09T16:35:42;2.87;;;0.87;;
1346;SDS011;667;48.796;9.480;2022-09-09T16:38:08;1.60;;;1.00;;
1346;SDS011;667;48.796;9.480;2022-09-09T16:40:36;1.13;;;0.80;;
1346;SDS011;667;48.796;9.480;2022-09-09T16:43:03;2.90;;;0.90;;
1346;SDS011;667;48.796;9.480;2022-09-09T16:45:30;1.97;;;1.00;;
1346;SDS011;667;48.796;9.480;2022-09-09T16:47:57;3.30;;;1.27;;
1346;SDS011;667;48.796;9.480;2022-09-09T16:50:23;1.60;;;0.87;;
1346;SDS011;667;48.796;9.480;2022-09-09T16:52:50;1.23;;;1.00;;
1346;SDS011;667;48.796;9.480;2022-09-09T16:55:16;0.70;;;0.70;;
1346;SDS011;667;48.796;9.480;2022-09-09T16:57:43;3.03;;;1.10;;
1346;SDS011;667;48.796;9.480;2022-09-09T17:00:08;1.77;;;1.00;;
1346;SDS011;667;48.796;9.480;2022-09-09T17:02:34;1.67;;;1.03;;
1346;SDS011;667;48.796;9.480;2022-09-09T17:05:00;1.20;;;0.80;;
1346;SDS011;667;48.796;9.480;2022-09-09T17:07:25;2.20;;;0.60;;
1346;SDS011;667;48.796;9.480;2022-09-09T17:09:52;1.20;;;0.60;;
1346;SDS011;667;48.796;9.480;2022-09-09T17:12:18;1.13;;;0.50;;
1346;SDS011;667;48.796;9.480;2022-09-09T17:14:43;3.83;;;1.13;;
1346;SDS011;667;48.796;9.480;2022-09-09T17:17:10;1.33;;;0.83;;
1346;SDS011;667;48.796;9.480;2022-09-09T17:19:36;2.40;;;0.57;;
1346;SDS011;667;48.796;9.480;2022-09-09T17:22:01;2.90;;;0.80;;
1346;SDS011;667;48.796;9.480;2022-09-09T17:24:27;1.73;;;0.70;;
1346;SDS011;667;48.796;9.480;2022-09-09T17:26:53;2.73;;;0.50;;
1346;SDS011;667;48.796;9.480;2022-09-09T17:29:20;0.50;;;0.40;;
1346;SDS011;667;48.796;9.480;2022-09-09T17:31:46;2.40;;;0.60;;
1346;SDS011;667;48.796;9.480;2022-09-09T17:34:12;1.80;;;0.60;;
1346;SDS011;667;48.796;9.480;2022-09-09T17:36:38;1.17;;;0.50;;
1346;SDS011;667;48.796;9.480;2022-09-09T17:39:04;3.53;;;0.80;;
1346;SDS011;667;48.796;9.480;2022-09-09T17:41:31;3.03;;;0.67;;
1346;SDS011;667;48.796;9.480;2022-09-09T17:43:59;1.93;;;0.90;;
1346;SDS011;667;48.796;9.480;2022-09-09T17:48:54;1.20;;;0.60;;
1346;SDS011;667;48.796;9.480;2022-09-09T17:51:23;1.43;;;0.60;;
1346;SDS011;667;48.796;9.480;2022-09-09T17:53:52;2.47;;;0.67;;
1346;SDS011;667;48.796;9.480;2022-09-09T17:56:20;0.70;;;0.43;;
1346;SDS011;667;48.796;9.480;2022-09-09T17:58:47;1.07;;;0.50;;
1346;SDS011;667;48.796;9.480;2022-09-09T18:01:15;1.70;;;0.83;;
1346;SDS011;667;48.796;9.480;2022-09-09T18:03:43;0.60;;;0.50;;
1346;SDS011;667;48.796;9.480;2022-09-09T18:06:11;0.80;;;0.73;;
1346;SDS011;667;48.796;9.480;2022-09-09T18:08:40;1.83;;;0.60;;
1346;SDS011;667;48.796;9.480;2022-09-09T18:11:07;1.63;;;0.90;;
1346;SDS011;667;48.796;9.480;2022-09-09T18:13:36;3.50;;;0.90;;
1346;SDS011;667;48.796;9.480;2022-09-09T18:16:05;1.00;;;0.80;;
1346;SDS011;667;48.796;9.480;2022-09-09T18:18:32;1.17;;;0.77;;
1346;SDS011;667;48.796;9.480;2022-09-09T18:23:36;3.33;;;0.77;;
1346;SDS011;667;48.796;9.480;2022-09-09T18:26:12;4.20;;;0.90;;
1346;SDS011;667;48.796;9.480;2022-09-09T18:28:40;1.90;;;0.60;;
1346;SDS011;667;48.796;9.480;2022-09-09T18:31:10;1.57;;;0.90;;
1346;SDS011;667;48.796;9.480;2022-09-09T18:33:38;1.27;;;0.63;;
1346;SDS011;667;48.796;9.480;2022-09-09T18:38:36;0.80;;;0.50;;